sensor_id;sensor_type;location;lat;lon;timestamp;pressure;altitude;pressure_sealevel;temperature;humidity
25130;BME280;13308;50.860;13.664;2023-08-20T05:37:41;97345.81;;;22.77;100.00
25130;BME280;13308;50.860;13.664;2023-08-20T05:40:07;97350.47;;;22.80;100.00
25130;BME280;13308;50.860;13.664;2023-08-20T05:42:34;97347.06;;;22.76;100.00
25130;BME280;13308;50.860;13.664;2023-08-20T05:45:03;97344.25;;;22.76;100.00
25130;BME280;13308;50.860;13.664;2023-08-20T05:47:28;97352.97;;;22.78;100.00
25130;BME280;13308;50.860;13.664;2023-08-20T05:49:55;97356.09;;;22.80;100.00
25130;BME280;13308;50.860;13.664;2023-08-20T05:52:21;97361.53;;;22.83;100.00
25130;BME280;13308;50.860;13.664;2023-08-20T05:54:46;97359.19;;;22.82;100.00
25130;BME280;13308;50.860;13.664;2023-08-20T05:57:12;97362.00;;;22.82;100.00
25130;BME280;13308;50.860;13.664;2023-08-20T05:59:37;97358.91;;;22.80;100.00
25130;BME280;13308;50.860;13.664;2023-08-20T06:02:03;97364.22;;;22.78;100.00
25130;BME280;13308;50.860;13.664;2023-08-20T06:04:29;97368.31;;;22.77;100.00
25130;BME280;13308;50.860;13.664;2023-08-20T06:06:55;97361.22;;;22.81;100.00
25130;BME280;13308;50.860;13.664;2023-08-20T06:09:20;97355.50;;;22.76;100.00
25130;BME280;13308;50.860;13.664;2023-08-20T06:11:45;97356.47;;;22.87;100.00
25130;BME280;13308;50.860;13.664;2023-08-20T06:14:10;97363.16;;;22.90;100.00
25130;BME280;13308;50.860;13.664;2023-08-20T06:16:36;97364.59;;;23.00;100.00
25130;BME280;13308;50.860;13.664;2023-08-20T06:19:01;97360.34;;;22.90;100.00
25130;BME280;13308;50.860;13.664;2023-08-20T06:21:27;97363.06;;;22.99;100.00
25130;BME280;13308;50.860;13.664;2023-08-20T06:23:52;97367.63;;;22.96;100.00
25130;BME280;13308;50.860;13.664;2023-08-20T06:26:17;97359.56;;;23.04;100.00
25130;BME280;13308;50.860;13.664;2023-08-20T06:28:43;97366.63;;;22.99;100.00
25130;BME280;13308;50.860;13.664;2023-08-20T06:31:08;97362.66;;;23.06;100.00
25130;BME280;13308;50.860;13.664;2023-08-20T06:33:34;97371.00;;;23.15;100.00
25130;BME280;13308;50.860;13.664;2023-08-20T06:35:59;97373.72;;;23.09;100.00
25130;BME280;13308;50.860;13.664;2023-08-20T06:38:24;97384.41;;;23.20;100.00
25130;BME280;13308;50.860;13.664;2023-08-20T06:40:50;97386.31;;;23.28;100.00
25130;BME280;13308;50.860;13.664;2023-08-20T06:43:15;97382.81;;;23.33;100.00
25130;BME280;13308;50.860;13.664;2023-08-20T06:45:41;97381.44;;;23.43;100.00
25130;BME280;13308;50.860;13.664;2023-08-20T06:48:06;97379.91;;;23.62;100.00
25130;BME280;13308;50.860;13.664;2023-08-20T06:50:31;97371.97;;;23.81;100.00
25130;BME280;13308;50.860;13.664;2023-08-20T06:52:57;97379.16;;;23.82;100.00
25130;BME280;13308;50.860;13.664;2023-08-20T06:55:22;97369.44;;;23.83;100.00
25130;BME280;13308;50.860;13.664;2023-08-20T06:57:47;97379.66;;;24.00;100.00
25130;BME280;13308;50.860;13.664;2023-08-20T07:00:13;97382.75;;;24.22;100.00
25130;BME280;13308;50.860;13.664;2023-08-20T07:02:38;97390.50;;;24.73;100.00
25130;BME280;13308;50.860;13.664;2023-08-20T07:05:03;97396.66;;;25.28;99.54
25130;BME280;13308;50.860;13.664;2023-08-20T07:07:29;97397.16;;;25.63;94.64
25130;BME280;13308;50.860;13.664;2023-08-20T07:09:54;97403.16;;;25.76;94.35
25130;BME280;13308;50.860;13.664;2023-08-20T07:12:19;97416.28;;;26.21;92.75
25130;BME280;13308;50.860;13.664;2023-08-20T07:14:45;97408.22;;;26.67;85.19
25130;BME280;13308;50.860;13.664;2023-08-20T07:17:10;97408.81;;;27.31;81.94
25130;BME280;13308;50.860;13.664;2023-08-20T07:19:36;97409.97;;;28.18;79.14
25130;BME280;13308;50.860;13.664;2023-08-20T07:22:02;97414.59;;;29.19;71.06
25130;BME280;13308;50.860;13.664;2023-08-20T07:24:27;97419.91;;;30.59;67.67
25130;BME280;13308;50.860;13.664;2023-08-20T07:26:54;97435.31;;;31.43;64.14
25130;BME280;13308;50.860;13.664;2023-08-20T07:29:25;97432.81;;;30.65;60.94
25130;BME280;13308;50.860;13.664;2023-08-20T07:31:50;97425.19;;;30.49;63.13
25130;BME280;13308;50.860;13.664;2023-08-20T07:34:16;97434.31;;;30.00;65.81
25130;BME280;13308;50.860;13.664;2023-08-20T07:36:41;97425.84;;;29.35;67.01
25130;BME280;13308;50.860;13.664;2023-08-20T07:39:06;97429.09;;;28.75;69.97
25130;BME280;13308;50.860;13.664;2023-08-20T07:41:33;97421.09;;;28.68;70.60
25130;BME280;13308;50.860;13.664;2023-08-20T07:43:59;97432.91;;;28.83;70.83
25130;BME280;13308;50.860;13.664;2023-08-20T07:46:24;97430.13;;;29.53;68.24
25130;BME280;13308;50.860;13.664;2023-08-20T07:48:50;97435.88;;;30.25;67.03
25130;BME280;13308;50.860;13.664;2023-08-20T07:51:15;97448.75;;;30.92;65.77
25130;BME280;13308;50.860;13.664;2023-08-20T07:53:40;97439.13;;;31.77;60.04
25130;BME280;13308;50.860;13.664;2023-08-20T07:56:06;97448.63;;;31.98;59.00
25130;BME280;13308;50.860;13.664;2023-08-20T07:58:31;97447.50;;;31.56;60.05
25130;BME280;13308;50.860;13.664;2023-08-20T08:00:57;97448.03;;;31.73;59.29
25130;BME280;13308;50.860;13.664;2023-08-20T08:03:25;97451.53;;;31.48;59.64
25130;BME280;13308;50.860;13.664;2023-08-20T08:05:52;97447.34;;;31.17;60.97
25130;BME280;13308;50.860;13.664;2023-08-20T08:08:19;97449.03;;;31.76;60.72
25130;BME280;13308;50.860;13.664;2023-08-20T08:10:45;97450.69;;;31.84;58.04
25130;BME280;13308;50.860;13.664;2023-08-20T08:13:12;97447.50;;;31.75;59.34
25130;BME280;13308;50.860;13.664;2023-08-20T08:15:37;97447.09;;;32.10;57.84
25130;BME280;13308;50.860;13.664;2023-08-20T08:18:03;97450.94;;;31.55;57.79
25130;BME280;13308;50.860;13.664;2023-08-20T08:20:29;97448.09;;;31.68;57.77
25130;BME280;13308;50.860;13.664;2023-08-20T08:22:54;97447.41;;;31.12;60.67
25130;BME280;13308;50.860;13.664;2023-08-20T08:25:19;97449.56;;;32.45;57.79
25130;BME280;13308;50.860;13.664;2023-08-20T08:27:45;97455.53;;;33.06;56.70
25130;BME280;13308;50.860;13.664;2023-08-20T08:30:11;97462.81;;;33.41;54.96
25130;BME280;13308;50.860;13.664;2023-08-20T08:32:36;97462.66;;;33.13;54.74
25130;BME280;13308;50.860;13.664;2023-08-20T08:35:01;97456.59;;;32.44;54.88
25130;BME280;13308;50.860;13.664;2023-08-20T08:37:27;97447.91;;;30.79;59.20
25130;BME280;13308;50.860;13.664;2023-08-20T08:39:52;97450.53;;;30.53;59.06
25130;BME280;13308;50.860;13.664;2023-08-20T08:42:19;97451.75;;;30.15;61.26
25130;BME280;13308;50.860;13.664;2023-08-20T08:44:47;97450.00;;;30.36;62.59
25130;BME280;13308;50.860;13.664;2023-08-20T08:47:13;97452.94;;;30.01;64.52
25130;BME280;13308;50.860;13.664;2023-08-20T08:49:38;97449.00;;;29.80;63.31
25130;BME280;13308;50.860;13.664;2023-08-20T08:52:05;97440.09;;;29.30;66.00
25130;BME280;13308;50.860;13.664;2023-08-20T08:54:32;97449.59;;;29.03;66.34
25130;BME280;13308;50.860;13.664;2023-08-20T08:56:58;97448.94;;;29.21;67.11
25130;BME280;13308;50.860;13.664;2023-08-20T08:59:23;97456.13;;;28.87;68.44
25130;BME280;13308;50.860;13.664;2023-08-20T09:01:49;97456.72;;;28.74;70.26
25130;BME280;13308;50.860;13.664;2023-08-20T09:04:14;97462.13;;;29.59;66.55
25130;BME280;13308;50.860;13.664;2023-08-20T09:06:47;97462.41;;;30.14;64.23
25130;BME280;13308;50.860;13.664;2023-08-20T09:09:13;97456.38;;;30.84;62.42
25130;BME280;13308;50.860;13.664;2023-08-20T09:11:38;97464.00;;;30.95;59.14
25130;BME280;13308;50.860;13.664;2023-08-20T09:14:04;97469.47;;;30.93;59.49
25130;BME280;13308;50.860;13.664;2023-08-20T09:16:30;97477.13;;;31.53;58.38
25130;BME280;13308;50.860;13.664;2023-08-20T09:18:58;97471.78;;;31.63;59.59
25130;BME280;13308;50.860;13.664;2023-08-20T09:21:27;97463.38;;;32.02;58.96
25130;BME280;13308;50.860;13.664;2023-08-20T09:24:01;97472.56;;;31.95;57.58
25130;BME280;13308;50.860;13.664;2023-08-20T09:26:27;97473.72;;;32.31;57.93
25130;BME280;13308;50.860;13.664;2023-08-20T09:28:55;97470.16;;;31.99;58.94
25130;BME280;13308;50.860;13.664;2023-08-20T09:31:36;97472.47;;;32.13;58.43
25130;BME280;13308;50.860;13.664;2023-08-20T09:34:02;97477.41;;;31.68;61.06
25130;BME280;13308;50.860;13.664;2023-08-20T09:36:33;97483.06;;;31.74;59.35
25130;BME280;13308;50.860;13.664;2023-08-20T09:39:01;97480.25;;;32.00;59.95
25130;BME280;13308;50.860;13.664;2023-08-20T09:41:26;97489.75;;;31.76;58.28
25130;BME280;13308;50.860;13.664;2023-08-20T09:43:56;97481.78;;;32.01;60.57
25130;BME280;13308;50.860;13.664;2023-08-20T09:46:24;97487.78;;;32.55;60.06
25130;BME280;13308;50.860;13.664;2023-08-20T09:48:51;97488.81;;;32.83;59.38
25130;BME280;13308;50.860;13.664;2023-08-20T09:51:19;97492.97;;;32.82;58.32
25130;BME280;13308;50.860;13.664;2023-08-20T09:53:55;97490.78;;;32.36;57.94
25130;BME280;13308;50.860;13.664;2023-08-20T09:58:53;97495.34;;;31.13;60.83
25130;BME280;13308;50.860;13.664;2023-08-20T10:01:19;97488.28;;;30.35;64.39
25130;BME280;13308;50.860;13.664;2023-08-20T10:03:45;97476.81;;;29.92;66.81
25130;BME280;13308;50.860;13.664;2023-08-20T10:06:11;97487.28;;;29.79;67.41
25130;BME280;13308;50.860;13.664;2023-08-20T10:08:36;97498.38;;;29.47;70.21
25130;BME280;13308;50.860;13.664;2023-08-20T10:11:02;97493.00;;;28.98;74.76
25130;BME280;13308;50.860;13.664;2023-08-20T10:13:27;97481.41;;;28.28;78.37
25130;BME280;13308;50.860;13.664;2023-08-20T10:15:53;97485.56;;;28.16;81.39
25130;BME280;13308;50.860;13.664;2023-08-20T10:18:21;97483.50;;;28.22;79.74
25130;BME280;13308;50.860;13.664;2023-08-20T10:20:50;97480.41;;;28.14;80.30
25130;BME280;13308;50.860;13.664;2023-08-20T10:23:20;97481.47;;;28.06;80.14
25130;BME280;13308;50.860;13.664;2023-08-20T10:25:46;97467.19;;;28.96;77.92
25130;BME280;13308;50.860;13.664;2023-08-20T10:28:23;97477.63;;;29.87;74.32
25130;BME280;13308;50.860;13.664;2023-08-20T10:36:19;97485.03;;;31.29;69.40
25130;BME280;13308;50.860;13.664;2023-08-20T10:38:50;97487.03;;;31.52;67.33
25130;BME280;13308;50.860;13.664;2023-08-20T10:41:15;97478.56;;;31.60;66.93
25130;BME280;13308;50.860;13.664;2023-08-20T10:43:47;97475.03;;;32.30;63.01
25130;BME280;13308;50.860;13.664;2023-08-20T10:46:18;97480.09;;;32.37;61.93
25130;BME280;13308;50.860;13.664;2023-08-20T10:48:54;97472.00;;;31.96;63.05
25130;BME280;13308;50.860;13.664;2023-08-20T10:54:09;97462.56;;;31.57;63.58
25130;BME280;13308;50.860;13.664;2023-08-20T10:56:47;97462.72;;;31.46;63.55
25130;BME280;13308;50.860;13.664;2023-08-20T10:59:28;97461.19;;;31.45;63.89
25130;BME280;13308;50.860;13.664;2023-08-20T11:01:58;97463.91;;;31.37;64.22
25130;BME280;13308;50.860;13.664;2023-08-20T11:04:31;97461.78;;;31.88;61.65
25130;BME280;13308;50.860;13.664;2023-08-20T11:07:00;97460.47;;;31.89;60.95
25130;BME280;13308;50.860;13.664;2023-08-20T11:09:28;97461.19;;;32.47;62.88
25130;BME280;13308;50.860;13.664;2023-08-20T11:11:54;97455.59;;;32.80;61.96
25130;BME280;13308;50.860;13.664;2023-08-20T11:14:20;97462.31;;;32.57;61.80
25130;BME280;13308;50.860;13.664;2023-08-20T11:16:47;97458.19;;;33.38;61.47
25130;BME280;13308;50.860;13.664;2023-08-20T11:19:14;97451.72;;;33.37;62.36
25130;BME280;13308;50.860;13.664;2023-08-20T11:21:43;97447.34;;;33.57;60.14
25130;BME280;13308;50.860;13.664;2023-08-20T11:24:10;97452.47;;;33.38;60.45
25130;BME280;13308;50.860;13.664;2023-08-20T11:26:38;97450.56;;;34.22;58.72
25130;BME280;13308;50.860;13.664;2023-08-20T11:29:08;97451.22;;;34.08;60.02
25130;BME280;13308;50.860;13.664;2023-08-20T11:31:35;97445.38;;;33.93;58.52
25130;BME280;13308;50.860;13.664;2023-08-20T11:34:02;97449.56;;;33.92;58.46
25130;BME280;13308;50.860;13.664;2023-08-20T11:36:27;97453.69;;;33.83;56.19
25130;BME280;13308;50.860;13.664;2023-08-20T11:38:53;97442.72;;;33.95;58.91
25130;BME280;13308;50.860;13.664;2023-08-20T11:41:20;97460.84;;;34.18;58.40
25130;BME280;13308;50.860;13.664;2023-08-20T11:43:46;97459.31;;;34.17;56.48
25130;BME280;13308;50.860;13.664;2023-08-20T11:46:18;97465.66;;;34.51;55.54
25130;BME280;13308;50.860;13.664;2023-08-20T11:49:03;97459.09;;;33.87;53.76
25130;BME280;13308;50.860;13.664;2023-08-20T11:51:30;97461.97;;;34.15;55.42
25130;BME280;13308;50.860;13.664;2023-08-20T11:53:57;97459.81;;;34.08;52.93
25130;BME280;13308;50.860;13.664;2023-08-20T11:56:22;97466.41;;;33.95;52.80
25130;BME280;13308;50.860;13.664;2023-08-20T11:58:51;97461.38;;;33.88;54.69
25130;BME280;13308;50.860;13.664;2023-08-20T12:01:18;97455.84;;;33.70;53.88
25130;BME280;13308;50.860;13.664;2023-08-20T12:03:44;97446.81;;;33.45;53.62
25130;BME280;13308;50.860;13.664;2023-08-20T12:06:20;97441.47;;;33.83;55.10
25130;BME280;13308;50.860;13.664;2023-08-20T12:08:45;97447.38;;;34.05;53.14
25130;BME280;13308;50.860;13.664;2023-08-20T12:11:11;97439.97;;;34.10;52.33
25130;BME280;13308;50.860;13.664;2023-08-20T12:13:36;97437.28;;;33.84;53.71
25130;BME280;13308;50.860;13.664;2023-08-20T12:16:02;97433.97;;;34.00;52.52
25130;BME280;13308;50.860;13.664;2023-08-20T12:18:27;97427.78;;;33.89;53.65
25130;BME280;13308;50.860;13.664;2023-08-20T12:20:52;97420.91;;;33.92;54.88
25130;BME280;13308;50.860;13.664;2023-08-20T12:23:18;97422.72;;;34.94;55.30
25130;BME280;13308;50.860;13.664;2023-08-20T12:25:43;97424.00;;;35.28;53.65
25130;BME280;13308;50.860;13.664;2023-08-20T12:28:08;97427.88;;;35.60;53.04
25130;BME280;13308;50.860;13.664;2023-08-20T12:30:34;97426.38;;;36.04;51.48
25130;BME280;13308;50.860;13.664;2023-08-20T12:33:00;97424.88;;;36.18;52.26
25130;BME280;13308;50.860;13.664;2023-08-20T12:35:25;97420.19;;;36.45;49.61
25130;BME280;13308;50.860;13.664;2023-08-20T12:37:51;97415.50;;;36.80;50.41
25130;BME280;13308;50.860;13.664;2023-08-20T12:40:16;97424.53;;;37.23;48.58
25130;BME280;13308;50.860;13.664;2023-08-20T12:42:43;97416.66;;;36.84;46.51
25130;BME280;13308;50.860;13.664;2023-08-20T12:45:09;97421.69;;;36.61;48.37
25130;BME280;13308;50.860;13.664;2023-08-20T12:47:35;97415.25;;;36.23;47.46
25130;BME280;13308;50.860;13.664;2023-08-20T12:50:01;97401.31;;;35.75;50.53
25130;BME280;13308;50.860;13.664;2023-08-20T12:52:29;97407.63;;;35.73;50.48
25130;BME280;13308;50.860;13.664;2023-08-20T12:54:55;97397.09;;;36.83;50.71
25130;BME280;13308;50.860;13.664;2023-08-20T12:57:20;97404.25;;;36.67;50.74
25130;BME280;13308;50.860;13.664;2023-08-20T12:59:45;97408.34;;;37.35;50.44
25130;BME280;13308;50.860;13.664;2023-08-20T13:02:11;97398.09;;;37.17;47.01
25130;BME280;13308;50.860;13.664;2023-08-20T13:04:36;97395.31;;;36.95;47.88
25130;BME280;13308;50.860;13.664;2023-08-20T13:07:03;97390.13;;;37.33;47.27
25130;BME280;13308;50.860;13.664;2023-08-20T13:09:28;97402.47;;;37.50;45.88
25130;BME280;13308;50.860;13.664;2023-08-20T13:12:01;97397.53;;;38.00;45.13
25130;BME280;13308;50.860;13.664;2023-08-20T13:14:26;97401.00;;;37.98;44.57
25130;BME280;13308;50.860;13.664;2023-08-20T13:16:52;97401.13;;;38.76;44.23
25130;BME280;13308;50.860;13.664;2023-08-20T13:19:17;97397.97;;;38.13;45.64
25130;BME280;13308;50.860;13.664;2023-08-20T13:21:43;97403.13;;;38.56;44.99
25130;BME280;13308;50.860;13.664;2023-08-20T13:24:08;97394.59;;;38.24;44.27
25130;BME280;13308;50.860;13.664;2023-08-20T13:26:34;97389.50;;;37.91;45.59
25130;BME280;13308;50.860;13.664;2023-08-20T13:29:00;97382.59;;;38.52;44.57
25130;BME280;13308;50.860;13.664;2023-08-20T13:31:25;97386.03;;;38.34;45.19
25130;BME280;13308;50.860;13.664;2023-08-20T13:33:51;97370.88;;;37.11;45.77
25130;BME280;13308;50.860;13.664;2023-08-20T13:36:16;97372.91;;;37.25;46.29
25130;BME280;13308;50.860;13.664;2023-08-20T13:38:41;97377.22;;;36.62;47.70
25130;BME280;13308;50.860;13.664;2023-08-20T13:41:07;97379.22;;;36.30;48.35
25130;BME280;13308;50.860;13.664;2023-08-20T13:43:34;97372.16;;;35.63;48.53
25130;BME280;13308;50.860;13.664;2023-08-20T13:46:00;97370.34;;;36.50;48.31
25130;BME280;13308;50.860;13.664;2023-08-20T13:48:25;97372.50;;;36.42;47.44
25130;BME280;13308;50.860;13.664;2023-08-20T13:50:51;97372.06;;;37.00;46.88
25130;BME280;13308;50.860;13.664;2023-08-20T13:53:16;97368.53;;;37.17;47.44
25130;BME280;13308;50.860;13.664;2023-08-20T13:55:41;97370.69;;;38.48;44.73
25130;BME280;13308;50.860;13.664;2023-08-20T13:58:07;97373.72;;;39.01;44.93
25130;BME280;13308;50.860;13.664;2023-08-20T14:00:33;97376.84;;;39.13;43.12
25130;BME280;13308;50.860;13.664;2023-08-20T14:02:58;97368.47;;;38.90;42.92
25130;BME280;13308;50.860;13.664;2023-08-20T14:05:23;97370.47;;;38.97;41.86
25130;BME280;13308;50.860;13.664;2023-08-20T14:07:49;97370.81;;;39.90;42.68
25130;BME280;13308;50.860;13.664;2023-08-20T14:10:15;97370.66;;;38.99;42.54
25130;BME280;13308;50.860;13.664;2023-08-20T14:12:41;97361.91;;;40.05;41.76
25130;BME280;13308;50.860;13.664;2023-08-20T14:15:07;97375.41;;;39.93;41.79
25130;BME280;13308;50.860;13.664;2023-08-20T14:17:33;97374.09;;;41.37;39.32
25130;BME280;13308;50.860;13.664;2023-08-20T14:19:58;97366.81;;;41.17;40.09
25130;BME280;13308;50.860;13.664;2023-08-20T14:22:24;97359.06;;;40.43;40.18
25130;BME280;13308;50.860;13.664;2023-08-20T14:24:49;97359.25;;;40.83;40.66
25130;BME280;13308;50.860;13.664;2023-08-20T14:27:14;97355.72;;;40.85;40.34
25130;BME280;13308;50.860;13.664;2023-08-20T14:29:41;97354.66;;;40.80;40.35
25130;BME280;13308;50.860;13.664;2023-08-20T14:32:06;97359.06;;;40.43;40.69
25130;BME280;13308;50.860;13.664;2023-08-20T14:34:32;97353.59;;;40.47;41.20
25130;BME280;13308;50.860;13.664;2023-08-20T14:36:57;97355.72;;;40.75;39.57
25130;BME280;13308;50.860;13.664;2023-08-20T14:39:23;97356.41;;;39.64;40.05
25130;BME280;13308;50.860;13.664;2023-08-20T14:41:48;97364.66;;;39.14;41.03
25130;BME280;13308;50.860;13.664;2023-08-20T14:44:14;97360.50;;;38.64;42.03
25130;BME280;13308;50.860;13.664;2023-08-20T14:46:39;97359.00;;;37.88;43.28
25130;BME280;13308;50.860;13.664;2023-08-20T14:49:04;97343.59;;;36.25;47.74
25130;BME280;13308;50.860;13.664;2023-08-20T14:51:30;97335.91;;;35.01;49.67
25130;BME280;13308;50.860;13.664;2023-08-20T14:53:55;97339.88;;;34.40;50.24
25130;BME280;13308;50.860;13.664;2023-08-20T14:56:20;97349.34;;;36.03;45.83
25130;BME280;13308;50.860;13.664;2023-08-20T14:58:46;97350.31;;;34.65;44.67
25130;BME280;13308;50.860;13.664;2023-08-20T15:01:11;97347.69;;;35.47;44.54
25130;BME280;13308;50.860;13.664;2023-08-20T15:03:37;97352.47;;;36.59;41.63
25130;BME280;13308;50.860;13.664;2023-08-20T15:06:04;97349.38;;;36.18;41.01
25130;BME280;13308;50.860;13.664;2023-08-20T15:08:30;97347.56;;;34.88;43.96
25130;BME280;13308;50.860;13.664;2023-08-20T15:10:56;97319.63;;;32.92;47.53
25130;BME280;13308;50.860;13.664;2023-08-20T15:13:23;97321.22;;;32.80;48.40
25130;BME280;13308;50.860;13.664;2023-08-20T15:15:52;97327.31;;;33.18;47.18
25130;BME280;13308;50.860;13.664;2023-08-20T15:18:18;97332.06;;;33.56;47.46
25130;BME280;13308;50.860;13.664;2023-08-20T15:20:43;97340.75;;;33.43;47.54
25130;BME280;13308;50.860;13.664;2023-08-20T15:23:08;97342.38;;;33.59;48.18
25130;BME280;13308;50.860;13.664;2023-08-20T15:25:34;97346.13;;;33.47;48.09
25130;BME280;13308;50.860;13.664;2023-08-20T15:27:59;97357.94;;;32.04;52.03
25130;BME280;13308;50.860;13.664;2023-08-20T15:30:24;97370.69;;;31.14;53.93
25130;BME280;13308;50.860;13.664;2023-08-20T15:32:50;97408.69;;;29.17;57.73
25130;BME280;13308;50.860;13.664;2023-08-20T15:35:16;97378.44;;;28.79;60.61
25130;BME280;13308;50.860;13.664;2023-08-20T15:37:41;97382.22;;;29.27;60.57
25130;BME280;13308;50.860;13.664;2023-08-20T15:40:07;97386.81;;;29.36;59.05
25130;BME280;13308;50.860;13.664;2023-08-20T15:42:37;97386.88;;;29.84;58.54
25130;BME280;13308;50.860;13.664;2023-08-20T15:45:03;97364.84;;;28.15;59.57
25130;BME280;13308;50.860;13.664;2023-08-20T15:47:28;97358.44;;;28.55;58.76
25130;BME280;13308;50.860;13.664;2023-08-20T15:49:54;97352.50;;;28.99;58.47
25130;BME280;13308;50.860;13.664;2023-08-20T15:52:19;97348.75;;;29.15;58.75
25130;BME280;13308;50.860;13.664;2023-08-20T15:54:44;97331.16;;;28.81;59.38
25130;BME280;13308;50.860;13.664;2023-08-20T15:57:09;97318.78;;;27.81;60.75
25130;BME280;13308;50.860;13.664;2023-08-20T15:59:36;97306.28;;;27.33;62.46
25130;BME280;13308;50.860;13.664;2023-08-20T16:02:02;97313.75;;;26.97;65.11
25130;BME280;13308;50.860;13.664;2023-08-20T16:04:27;97314.53;;;27.09;64.72
25130;BME280;13308;50.860;13.664;2023-08-20T16:06:53;97310.16;;;27.02;66.42
25130;BME280;13308;50.860;13.664;2023-08-20T16:09:18;97326.13;;;27.11;65.93
25130;BME280;13308;50.860;13.664;2023-08-20T16:11:45;97314.56;;;26.81;66.66
25130;BME280;13308;50.860;13.664;2023-08-20T16:14:10;97320.44;;;26.56;68.26
25130;BME280;13308;50.860;13.664;2023-08-20T16:16:36;97322.69;;;26.41;68.58
25130;BME280;13308;50.860;13.664;2023-08-20T16:19:01;97325.06;;;25.84;72.18
25130;BME280;13308;50.860;13.664;2023-08-20T16:21:27;97338.00;;;25.48;75.04
25130;BME280;13308;50.860;13.664;2023-08-20T16:23:52;97345.81;;;25.28;77.88
25130;BME280;13308;50.860;13.664;2023-08-20T16:26:17;97353.81;;;25.35;77.08
25130;BME280;13308;50.860;13.664;2023-08-20T16:28:43;97345.34;;;25.35;78.28
25130;BME280;13308;50.860;13.664;2023-08-20T16:31:08;97354.19;;;25.48;76.20
25130;BME280;13308;50.860;13.664;2023-08-20T16:33:34;97357.34;;;25.24;76.75
25130;BME280;13308;50.860;13.664;2023-08-20T16:36:00;97363.44;;;25.17;77.92
25130;BME280;13308;50.860;13.664;2023-08-20T16:38:25;97355.94;;;25.09;76.09
25130;BME280;13308;50.860;13.664;2023-08-20T16:40:50;97344.72;;;25.20;75.54
25130;BME280;13308;50.860;13.664;2023-08-20T16:43:16;97347.59;;;25.25;74.63
25130;BME280;13308;50.860;13.664;2023-08-20T16:45:42;97348.81;;;25.19;75.66
25130;BME280;13308;50.860;13.664;2023-08-20T16:48:08;97346.72;;;25.14;77.07
25130;BME280;13308;50.860;13.664;2023-08-20T16:50:33;97335.09;;;25.06;77.93
25130;BME280;13308;50.860;13.664;2023-08-20T16:52:59;97340.00;;;25.06;78.26
25130;BME280;13308;50.860;13.664;2023-08-20T16:55:25;97331.94;;;24.93;79.37
25130;BME280;13308;50.860;13.664;2023-08-20T16:57:50;97336.13;;;25.03;79.58
25130;BME280;13308;50.860;13.664;2023-08-20T17:00:16;97327.06;;;24.94;80.98
25130;BME280;13308;50.860;13.664;2023-08-20T17:02:41;97311.78;;;24.49;83.69
25130;BME280;13308;50.860;13.664;2023-08-20T17:05:07;97316.41;;;24.52;84.21
25130;BME280;13308;50.860;13.664;2023-08-20T17:07:32;97330.50;;;24.27;87.87
25130;BME280;13308;50.860;13.664;2023-08-20T17:09:58;97329.13;;;24.17;89.61
25130;BME280;13308;50.860;13.664;2023-08-20T17:12:23;97324.22;;;24.37;88.21
25130;BME280;13308;50.860;13.664;2023-08-20T17:14:49;97323.31;;;24.26;87.63
25130;BME280;13308;50.860;13.664;2023-08-20T17:17:16;97340.47;;;24.48;87.09
25130;BME280;13308;50.860;13.664;2023-08-20T17:19:42;97334.63;;;24.77;88.00
25130;BME280;13308;50.860;13.664;2023-08-20T17:22:07;97315.47;;;24.86;87.81
25130;BME280;13308;50.860;13.664;2023-08-20T17:24:33;97327.16;;;24.74;89.18
25130;BME280;13308;50.860;13.664;2023-08-20T17:26:58;97329.09;;;24.88;89.23
25130;BME280;13308;50.860;13.664;2023-08-20T17:29:23;97326.31;;;24.99;88.48
25130;BME280;13308;50.860;13.664;2023-08-20T17:31:49;97330.72;;;25.00;90.35
25130;BME280;13308;50.860;13.664;2023-08-20T17:34:14;97329.97;;;25.05;88.80
25130;BME280;13308;50.860;13.664;2023-08-20T17:36:40;97326.22;;;25.19;87.94
25130;BME280;13308;50.860;13.664;2023-08-20T17:39:05;97326.31;;;24.99;88.08
25130;BME280;13308;50.860;13.664;2023-08-20T17:41:32;97316.06;;;25.01;88.03
25130;BME280;13308;50.860;13.664;2023-08-20T17:43:57;97324.16;;;24.83;88.81
25130;BME280;13308;50.860;13.664;2023-08-20T17:46:23;97315.84;;;24.74;88.75
25130;BME280;13308;50.860;13.664;2023-08-20T17:48:48;97316.59;;;24.69;89.57
25130;BME280;13308;50.860;13.664;2023-08-20T17:51:13;97300.44;;;24.44;92.57
25130;BME280;13308;50.860;13.664;2023-08-20T17:53:39;97309.28;;;24.31;93.47
25130;BME280;13308;50.860;13.664;2023-08-20T17:56:04;97296.50;;;24.10;93.53
25130;BME280;13308;50.860;13.664;2023-08-20T17:58:31;97298.28;;;24.08;94.37
25130;BME280;13308;50.860;13.664;2023-08-20T18:00:56;97303.94;;;23.88;95.32
25130;BME280;13308;50.860;13.664;2023-08-20T18:03:22;97305.59;;;23.80;96.23
25130;BME280;13308;50.860;13.664;2023-08-20T18:05:47;97303.91;;;23.48;100.00
25130;BME280;13308;50.860;13.664;2023-08-20T18:08:16;97306.31;;;23.55;99.75
25130;BME280;13308;50.860;13.664;2023-08-20T18:10:41;97300.53;;;23.44;100.00
25130;BME280;13308;50.860;13.664;2023-08-20T18:13:07;97306.31;;;23.35;100.00
25130;BME280;13308;50.860;13.664;2023-08-20T18:15:33;97317.56;;;23.35;100.00
25130;BME280;13308;50.860;13.664;2023-08-20T18:17:59;97309.19;;;23.40;100.00
25130;BME280;13308;50.860;13.664;2023-08-20T18:20:25;97307.84;;;23.36;100.00
25130;BME280;13308;50.860;13.664;2023-08-20T18:22:50;97314.66;;;23.29;100.00
